Time;durP1;ratioP1;P1;durP2;ratioP2;P2;SDS_P1;SDS_P2;PMS_P1;PMS_P2;Temp;Humidity;BMP_temperature;BMP_pressure;BME280_temperature;BME280_humidity;BME280_pressure;Samples;Min_cycle;Max_cycle;Signal;HPM_P1;HPM_P2
2023/06/28 00:01:25;;;;;;;;;30.33;29.00;;;;;22.34;50.32;101240.19;4871315;29;45543;-82
2023/06/28 00:03:50;;;;;;;;;38.33;33.33;;;;;22.30;49.88;101242.09;4872342;29;45431;-81
2023/06/28 00:06:15;;;;;;;;;33.67;32.00;;;;;22.26;49.68;101239.47;4873864;29;45947;-82
2023/06/28 00:08:41;;;;;;;;;22.67;20.67;;;;;22.31;49.78;101246.56;4858273;29;45376;-81
2023/06/28 00:11:10;;;;;;;;;19.67;19.33;;;;;22.26;49.74;101243.09;4855133;29;48395;-81
2023/06/28 00:16:57;;;;;;;;;11.00;10.33;;;;;22.14;50.07;101243.41;4873319;29;45492;-83
2023/06/28 00:19:26;;;;;;;;;10.00;8.00;;;;;22.12;50.47;101246.13;4872079;28;45512;-82
2023/06/28 00:21:53;;;;;;;;;7.00;7.00;;;;;22.11;50.41;101238.91;4855836;29;48373;-82
2023/06/28 00:24:19;;;;;;;;;5.00;5.00;;;;;22.08;50.66;101239.03;4855774;28;45733;-83
2023/06/28 00:26:44;;;;;;;;;10.00;7.00;;;;;22.10;50.40;101241.69;4871092;28;45881;-82
2023/06/28 00:29:09;;;;;;;;;12.67;9.00;;;;;22.07;50.38;101237.22;4871308;29;45482;-82
2023/06/28 00:31:35;;;;;;;;;16.33;13.33;;;;;22.08;50.71;101233.59;4869020;28;45375;-82
2023/06/28 00:34:00;;;;;;;;;10.67;9.67;;;;;22.09;50.32;101234.47;4871427;28;45541;-82
2023/06/28 00:36:28;;;;;;;;;10.67;9.67;;;;;22.09;50.55;101238.06;4873130;29;45474;-81
2023/06/28 00:38:54;;;;;;;;;15.33;14.67;;;;;22.07;50.74;101239.94;4856692;29;45426;-82
2023/06/28 00:41:19;;;;;;;;;59.67;46.67;;;;;22.04;50.60;101242.72;4874576;28;45398;-82
2023/06/28 00:43:45;;;;;;;;;36.33;31.00;;;;;22.05;51.20;101239.09;4858623;29;45865;-82
2023/06/28 00:46:10;;;;;;;;;43.67;37.67;;;;;22.06;50.97;101234.56;4874086;29;45359;-82
2023/06/28 00:48:36;;;;;;;;;36.00;30.33;;;;;22.07;50.79;101229.09;4873420;28;44770;-81
2023/06/28 00:51:03;;;;;;;;;46.33;38.67;;;;;22.11;50.97;101216.38;4874338;29;45440;-82
2023/06/28 00:56:52;;;;;;;;;50.00;39.33;;;;;22.20;50.74;101221.56;4873078;28;45499;-82
2023/06/28 00:59:18;;;;;;;;;57.75;46.75;;;;;22.22;50.98;101225.13;4855435;29;45448;-82
2023/06/28 01:01:44;;;;;;;;;53.00;43.00;;;;;22.21;50.92;101228.75;4870824;29;46818;-81
2023/06/28 01:04:10;;;;;;;;;67.00;52.75;;;;;22.18;51.11;101218.00;4852489;29;45406;-82
2023/06/28 01:06:37;;;;;;;;;58.00;46.25;;;;;22.28;51.22;101224.06;4853080;29;45257;-81
2023/06/28 01:09:07;;;;;;;;;55.25;44.50;;;;;22.25;51.61;101213.34;4869825;28;45558;-81
2023/06/28 01:11:33;;;;;;;;;67.50;53.50;;;;;22.25;51.65;101207.91;4871003;29;45334;-82
2023/06/28 01:14:00;;;;;;;;;64.00;50.00;;;;;22.26;51.52;101216.00;4853859;29;45606;-82
2023/06/28 01:16:26;;;;;;;;;60.00;47.25;;;;;22.24;51.66;101212.44;4870649;29;45416;-81
2023/06/28 01:18:53;;;;;;;;;51.00;41.00;;;;;22.28;51.55;101206.00;4871525;28;45531;-81
2023/06/28 01:21:22;;;;;;;;;46.00;37.67;;;;;22.24;51.29;101222.38;4871976;29;46629;-81
2023/06/28 01:23:48;;;;;;;;;48.00;37.00;;;;;22.22;51.68;101224.19;4857045;29;45756;-82
2023/06/28 01:26:15;;;;;;;;;31.67;31.00;;;;;22.22;51.48;101219.69;4873737;29;45465;-81
2023/06/28 01:28:42;;;;;;;;;28.67;25.33;;;;;22.22;51.23;101224.19;4855701;29;45562;-81
2023/06/28 01:31:07;;;;;;;;;23.00;21.00;;;;;22.15;51.26;101215.34;4856519;29;45113;-82
2023/06/28 01:33:33;;;;;;;;;16.00;15.67;;;;;22.18;51.50;101218.00;4871943;28;45674;-82
2023/06/28 01:35:58;;;;;;;;;17.33;16.33;;;;;22.14;51.41;101211.78;4872200;29;45471;-81
2023/06/28 01:38:26;;;;;;;;;16.00;14.33;;;;;22.17;51.75;101219.78;4872654;29;45361;-80
2023/06/28 01:40:52;;;;;;;;;21.00;18.33;;;;;22.12;51.68;101213.63;4869208;29;47700;-81
2023/06/28 01:43:19;;;;;;;;;27.33;23.33;;;;;22.15;51.30;101218.94;4855096;29;45401;-82
2023/06/28 01:45:44;;;;;;;;;18.00;18.00;;;;;22.14;51.73;101216.31;4870962;28;45780;-82
2023/06/28 01:48:10;;;;;;;;;21.33;20.00;;;;;22.09;51.71;101210.97;4872213;29;45369;-82
2023/06/28 01:50:37;;;;;;;;;29.67;23.33;;;;;22.12;51.92;101210.91;4855369;29;46673;-82
2023/06/28 01:53:04;;;;;;;;;33.67;28.67;;;;;22.06;51.82;101215.63;4855550;28;45322;-81
2023/06/28 01:55:30;;;;;;;;;34.00;30.00;;;;;22.02;51.77;101211.22;4872394;29;45462;-82
2023/06/28 01:57:56;;;;;;;;;35.00;33.00;;;;;21.98;51.85;101203.16;4871925;28;45323;-82
2023/06/28 02:00:22;;;;;;;;;32.33;29.33;;;;;22.01;51.62;101198.59;4854747;29;47335;-82
2023/06/28 02:02:48;;;;;;;;;47.00;39.33;;;;;21.99;51.96;101201.31;4854738;29;45460;-82
2023/06/28 02:05:13;;;;;;;;;50.25;40.00;;;;;21.99;52.07;101206.75;4855079;29;45657;-82
2023/06/28 02:07:40;;;;;;;;;51.25;43.00;;;;;22.05;52.32;101203.88;4871453;28;45573;-82
2023/06/28 02:10:06;;;;;;;;;47.00;38.67;;;;;22.01;52.01;101215.72;4871929;29;46134;-81
2023/06/28 02:12:31;;;;;;;;;54.00;41.00;;;;;21.94;52.20;101200.56;4854816;29;45403;-81
2023/06/28 02:14:58;;;;;;;;;54.25;42.50;;;;;21.97;52.10;101208.59;4855133;29;45473;-81
2023/06/28 02:17:23;;;;;;;;;60.25;48.75;;;;;21.93;51.79;101201.47;4855064;29;45649;-82
2023/06/28 02:23:10;;;;;;;;;70.50;56.00;;;;;21.87;52.50;101207.06;4870401;28;45515;-82
2023/06/28 02:25:36;;;;;;;;;67.75;53.25;;;;;21.83;52.51;101183.69;4873949;29;45425;-82
2023/06/28 02:28:01;;;;;;;;;62.50;49.25;;;;;21.83;52.66;101194.53;4856376;29;45561;-81
2023/06/28 02:30:29;;;;;;;;;62.00;51.25;;;;;21.86;52.68;101194.47;4854881;29;46883;-81
2023/06/28 02:32:54;;;;;;;;;55.50;45.25;;;;;21.84;52.69;101188.19;4870659;28;45688;-81
2023/06/28 02:35:26;;;;;;;;;42.67;37.00;;;;;21.80;53.06;101190.09;4871570;29;45785;-81
2023/06/28 02:37:51;;;;;;;;;46.67;38.00;;;;;21.78;53.19;101192.81;4855402;29;45397;-81
2023/06/28 02:40:17;;;;;;;;;38.00;35.00;;;;;21.78;53.21;101192.81;4856218;29;45966;-81
2023/06/28 02:42:43;;;;;;;;;41.00;34.00;;;;;21.84;52.76;101197.19;4873700;28;45362;-81
2023/06/28 02:45:09;;;;;;;;;24.00;24.00;;;;;21.80;52.77;101197.31;4871497;29;45697;-81
2023/06/28 02:47:34;;;;;;;;;29.67;26.67;;;;;21.78;53.02;101191.94;4855985;29;45421;-81
2023/06/28 02:50:04;;;;;;;;;24.00;23.33;;;;;21.73;53.05;101192.06;4871699;29;45391;-81
2023/06/28 02:52:29;;;;;;;;;14.67;14.33;;;;;21.67;52.97;101177.78;4872805;29;45331;-82
2023/06/28 02:54:54;;;;;;;;;14.33;10.33;;;;;21.71;52.68;101195.72;4871828;28;45520;-82
2023/06/28 02:57:20;;;;;;;;;10.33;9.33;;;;;21.66;52.90;101198.56;4871045;29;45541;-82
2023/06/28 02:59:45;;;;;;;;;9.00;7.00;;;;;21.61;53.01;101195.06;4870378;29;46301;-83
2023/06/28 03:02:15;;;;;;;;;8.00;7.67;;;;;21.63;53.09;101198.59;4853094;29;45720;-82
2023/06/28 03:04:40;;;;;;;;;5.00;5.00;;;;;21.48;53.17;101183.66;4853421;29;45433;-83
2023/06/28 03:07:07;;;;;;;;;5.00;4.33;;;;;21.50;53.11;101191.72;4870618;29;45368;-82
2023/06/28 03:09:32;;;;;;;;;6.33;6.33;;;;;21.46;53.29;101196.31;4853340;29;47108;-82
2023/06/28 03:11:58;;;;;;;;;7.00;7.00;;;;;21.44;53.50;101186.47;4872060;28;45374;-82
2023/06/28 03:14:23;;;;;;;;;7.67;6.67;;;;;21.43;53.82;101196.41;4870035;29;44760;-80
2023/06/28 03:16:48;;;;;;;;;7.33;6.00;;;;;21.41;53.64;101190.13;4868896;29;44929;-81
2023/06/28 03:19:14;;;;;;;;;6.00;6.00;;;;;21.36;53.87;101187.50;4853149;29;47157;-81
2023/06/28 03:21:39;;;;;;;;;9.00;7.00;;;;;21.29;53.71;101184.97;4870415;29;45425;-81
2023/06/28 03:24:05;;;;;;;;;7.33;5.00;;;;;21.29;53.96;101196.69;4870071;29;45882;-80
2023/06/28 03:26:31;;;;;;;;;7.00;7.00;;;;;21.27;54.11;101195.84;4856065;29;45829;-80
2023/06/28 03:28:57;;;;;;;;;8.00;8.00;;;;;21.24;54.16;101195.91;4854674;29;46296;-80
2023/06/28 03:31:23;;;;;;;;;12.33;11.33;;;;;21.26;54.22;101196.75;4869906;28;45430;-82
2023/06/28 03:33:48;;;;;;;;;10.33;10.33;;;;;21.24;54.58;101190.50;4853293;29;45340;-81
2023/06/28 03:36:14;;;;;;;;;7.00;6.67;;;;;21.24;54.74;101198.59;4854824;29;45358;-82
2023/06/28 03:38:40;;;;;;;;;8.33;8.00;;;;;21.31;54.84;101192.13;4871862;28;45927;-82
2023/06/28 03:41:05;;;;;;;;;11.00;9.33;;;;;21.34;54.38;101197.47;4854924;28;45324;-81
2023/06/28 03:43:31;;;;;;;;;6.00;6.00;;;;;21.33;54.57;101195.69;4870502;29;45843;-80
2023/06/28 03:45:56;;;;;;;;;6.00;6.00;;;;;21.28;54.55;101192.19;4852604;29;45254;-81
2023/06/28 03:48:21;;;;;;;;;5.67;5.67;;;;;21.29;54.58;101194.00;4867770;29;47624;-81
2023/06/28 03:50:47;;;;;;;;;5.33;5.33;;;;;21.29;54.44;101194.00;4869309;29;45740;-81
2023/06/28 03:53:12;;;;;;;;;7.00;7.00;;;;;21.30;54.38;101192.16;4870592;29;45437;-81
2023/06/28 03:55:38;;;;;;;;;6.67;6.00;;;;;21.29;54.16;101188.59;4872694;28;45133;-81
2023/06/28 03:58:03;;;;;;;;;9.00;8.67;;;;;21.27;54.57;101198.53;4853740;29;47833;-82
2023/06/28 04:00:29;;;;;;;;;5.67;5.67;;;;;21.25;54.71;101189.56;4870528;29;45459;-82
2023/06/28 04:02:54;;;;;;;;;6.00;6.00;;;;;21.26;54.39;101187.75;4870922;29;45460;-82
2023/06/28 04:05:25;;;;;;;;;10.67;10.67;;;;;21.38;54.56;101182.94;4869645;29;45497;-81
2023/06/28 04:07:57;;;;;;;;;7.67;6.00;;;;;21.25;54.99;101180.53;4870131;29;45394;-81
2023/06/28 04:10:23;;;;;;;;;4.33;4.33;;;;;21.29;54.95;101190.38;4869302;29;45768;-81
2023/06/28 04:12:48;;;;;;;;;6.33;6.33;;;;;21.25;55.33;101184.16;4852886;29;45484;-82
2023/06/28 04:15:14;;;;;;;;;8.33;7.33;;;;;21.31;55.40;101191.22;4868441;28;45462;-81
2023/06/28 04:17:40;;;;;;;;;5.33;5.33;;;;;21.35;55.80;101183.03;4853432;29;46807;-81
2023/06/28 04:20:07;;;;;;;;;8.00;8.00;;;;;21.33;55.72;101183.97;4869941;29;45445;-81
2023/06/28 04:22:33;;;;;;;;;6.00;6.00;;;;;21.28;56.02;101197.59;4852636;29;45224;-81
2023/06/28 04:24:59;;;;;;;;;4.33;4.33;;;;;21.28;56.10;101191.31;4869528;29;45618;-81
2023/06/28 04:27:25;;;;;;;;;7.00;7.00;;;;;21.31;56.39;101191.22;4853792;29;48029;-82
2023/06/28 04:30:12;;;;;;;;;9.33;9.33;;;;;21.45;56.47;101189.16;4870935;29;45447;-81
2023/06/28 04:32:38;;;;;;;;;7.00;7.00;;;;;21.35;56.73;101198.38;4868721;28;45419;-81
2023/06/28 04:35:03;;;;;;;;;7.33;7.33;;;;;21.37;57.03;101173.06;4853076;29;45449;-81
2023/06/28 04:37:31;;;;;;;;;8.00;6.67;;;;;21.42;56.99;101182.88;4868107;29;45444;-81
2023/06/28 04:40:01;;;;;;;;;8.00;8.00;;;;;21.56;56.84;101175.34;4868448;29;45550;-82
2023/06/28 04:42:26;;;;;;;;;8.00;7.00;;;;;21.49;56.95;101182.72;4868807;29;44899;-82
2023/06/28 04:44:59;;;;;;;;;10.00;9.00;;;;;21.62;57.01;101183.31;4870132;29;45502;-82
2023/06/28 04:47:27;;;;;;;;;9.00;8.00;;;;;21.65;56.75;101188.63;4870617;29;46511;-82
2023/06/28 04:49:54;;;;;;;;;8.00;7.67;;;;;21.70;56.90;101183.13;4854747;29;45445;-82
2023/06/28 04:52:21;;;;;;;;;6.00;6.00;;;;;21.71;56.55;101184.88;4871582;29;45519;-82
2023/06/28 04:54:47;;;;;;;;;7.33;6.67;;;;;21.81;56.65;101189.13;4853097;29;45511;-82
2023/06/28 04:57:15;;;;;;;;;9.33;7.33;;;;;21.85;56.74;101187.25;4852722;29;48217;-81
2023/06/28 04:59:41;;;;;;;;;8.00;7.00;;;;;21.89;56.60;101179.00;4853762;29;45498;-81
2023/06/28 05:02:07;;;;;;;;;9.00;8.00;;;;;21.97;56.71;101178.81;4852916;29;45414;-82
2023/06/28 05:04:33;;;;;;;;;8.00;7.00;;;;;22.01;56.18;101180.50;4854076;29;45551;-82
2023/06/28 05:07:04;;;;;;;;;8.00;8.00;;;;;22.22;56.42;101180.84;4871767;29;45412;-81
2023/06/28 05:09:31;;;;;;;;;7.33;7.33;;;;;22.18;56.70;101177.38;4871026;29;44817;-81
2023/06/28 05:11:57;;;;;;;;;8.00;8.00;;;;;22.18;56.07;101175.53;4853027;29;45406;-81
2023/06/28 05:14:24;;;;;;;;;10.00;10.00;;;;;22.32;55.81;101179.72;4853789;29;45548;-82
2023/06/28 05:16:49;;;;;;;;;8.67;8.67;;;;;22.40;55.21;101182.19;4869734;29;45501;-82
2023/06/28 05:19:16;;;;;;;;;7.33;7.33;;;;;22.59;55.27;101178.03;4869750;28;45316;-82
2023/06/28 05:21:41;;;;;;;;;11.33;9.67;;;;;22.59;54.95;101175.34;4852850;29;44957;-82
2023/06/28 05:24:06;;;;;;;;;8.67;8.67;;;;;22.61;55.09;101170.75;4870230;29;45527;-82
2023/06/28 05:26:32;;;;;;;;;8.00;8.00;;;;;22.72;54.68;101176.78;4854455;29;47276;-81
2023/06/28 05:28:57;;;;;;;;;7.00;7.00;;;;;22.76;54.55;101166.69;4868364;29;45542;-82
2023/06/28 05:31:23;;;;;;;;;7.67;7.67;;;;;22.84;53.91;101170.06;4866519;29;45356;-81
2023/06/28 05:33:48;;;;;;;;;7.67;6.00;;;;;22.88;53.63;101163.59;4869221;29;45493;-82
2023/06/28 05:36:15;;;;;;;;;7.00;7.00;;;;;23.08;53.59;101156.72;4853551;29;48172;-82
2023/06/28 05:38:40;;;;;;;;;8.00;7.67;;;;;23.09;53.18;101169.38;4870406;28;45474;-82
2023/06/28 05:41:16;;;;;;;;;7.00;7.00;;;;;23.31;52.59;101159.59;4870933;28;45288;-82
2023/06/28 05:43:43;;;;;;;;;9.00;7.00;;;;;23.28;52.92;101164.25;4870310;28;45471;-82
2023/06/28 05:46:08;;;;;;;;;7.00;7.00;;;;;23.29;52.84;101161.47;4870146;29;45495;-81
2023/06/28 05:48:34;;;;;;;;;8.00;8.00;;;;;23.36;52.31;101163.03;4869935;29;45351;-81
2023/06/28 05:50:59;;;;;;;;;9.00;7.00;;;;;23.41;52.26;101160.22;4855014;29;45473;-82
2023/06/28 05:53:29;;;;;;;;;8.33;8.00;;;;;23.53;51.85;101156.16;4872478;29;45541;-81
2023/06/28 05:55:57;;;;;;;;;7.67;7.67;;;;;23.59;51.62;101158.69;4855911;29;45921;-81
2023/06/28 05:58:23;;;;;;;;;8.33;8.33;;;;;23.73;51.15;101158.22;4860425;29;45844;-82
2023/06/28 06:00:48;;;;;;;;;9.67;8.67;;;;;23.78;50.13;101150.84;4879142;28;45481;-83
2023/06/28 06:03:14;;;;;;;;;7.33;6.00;;;;;23.76;50.54;101167.16;4875573;28;45349;-82
2023/06/28 06:05:40;;;;;;;;;5.00;5.00;;;;;23.70;50.14;101164.66;4878164;29;45409;-82
2023/06/28 06:08:06;;;;;;;;;11.00;7.00;;;;;23.73;50.49;101170.00;4876004;29;45389;-83
2023/06/28 06:10:31;;;;;;;;;7.67;6.67;;;;;23.82;49.80;101165.22;4875445;29;44819;-82
2023/06/28 06:12:57;;;;;;;;;7.33;7.33;;;;;23.83;50.00;101164.25;4874530;28;45385;-81
2023/06/28 06:15:22;;;;;;;;;8.00;5.00;;;;;23.88;49.57;101154.16;4875816;29;46213;-82
2023/06/28 06:17:50;;;;;;;;;7.00;6.00;;;;;24.02;49.55;101162.69;4873850;29;45444;-81
2023/06/28 06:20:15;;;;;;;;;8.67;7.00;;;;;24.05;49.90;101162.56;4855057;29;45399;-81
2023/06/28 06:22:44;;;;;;;;;7.00;7.00;;;;;24.14;49.19;101164.97;4862910;29;45430;-88
2023/06/28 06:25:13;;;;;;;;;7.67;6.33;;;;;24.30;49.65;101172.59;4863448;29;46875;-87
2023/06/28 06:27:40;;;;;;;;;8.33;5.33;;;;;24.39;49.22;101177.66;4861856;29;44824;-86
2023/06/28 06:30:13;;;;;;;;;7.00;7.00;;;;;24.28;49.14;101133.66;4863554;29;45468;-85
2023/06/28 06:34:20;;;;;;;;;6.67;5.33;;;;;24.46;48.45;101154.78;4861239;29;45082;-86
2023/06/28 06:36:33;;;;;;;;;8.00;6.00;;;;;24.44;48.61;101142.16;4874026;29;45682;-87
2023/06/28 06:39:00;;;;;;;;;8.00;6.00;;;;;24.64;47.96;101169.53;4875559;29;45554;-87
2023/06/28 06:44:41;;;;;;;;;6.00;6.00;;;;;24.67;47.96;101153.09;4888383;23;45419;-87
2023/06/28 06:47:15;;;;;;;;;6.67;6.00;;;;;24.63;48.12;101126.06;4823342;29;45416;-87
2023/06/28 06:51:06;;;;;;;;;;;;;;;;;;;;;
2023/06/28 06:53:54;;;;;;;;;;;;;;;;;;;;;
2023/06/28 07:09:17;;;;;;;;;4.00;3.00;;;;;25.28;46.76;101163.41;4900576;23;45944;-86
2023/06/28 07:34:18;;;;;;;;;6.00;6.00;;;;;25.62;45.91;101172.94;4870486;29;45386;-87
2023/06/28 07:36:55;;;;;;;;;8.67;7.67;;;;;25.66;46.30;101188.19;4872622;29;45755;-86
2023/06/28 07:42:44;;;;;;;;;8.00;8.00;;;;;25.96;45.37;101173.38;4865184;29;45272;-86
2023/06/28 07:45:10;;;;;;;;;7.33;6.33;;;;;26.00;46.09;101194.97;4872342;29;47249;-86
2023/06/28 07:47:36;;;;;;;;;9.33;7.33;;;;;26.07;45.97;101195.59;4856257;29;45656;-85
2023/06/28 07:50:05;;;;;;;;;9.67;7.67;;;;;26.16;45.55;101189.75;4857549;29;45406;-85
2023/06/28 08:52:28;;;;;;;;;;;;;;;;;;;;;
2023/06/28 08:55:38;;;;;;;;;6.00;6.00;;;;;26.97;43.90;101146.09;4872280;29;45458;-86
2023/06/28 09:11:39;;;;;;;;;7.00;7.00;;;;;27.18;43.38;101125.03;4893217;23;44937;-86
2023/06/28 09:42:48;;;;;;;;;11.67;8.67;;;;;26.83;43.13;101112.16;5226450;23;47078;-87
2023/06/28 09:45:36;;;;;;;;;12.00;10.33;;;;;26.89;43.24;101102.78;4840391;29;46504;-87
2023/06/28 09:48:45;;;;;;;;;11.00;10.33;;;;;27.14;43.45;101132.47;4859671;29;45367;-87
2023/06/28 09:51:31;;;;;;;;;12.33;11.00;;;;;27.24;43.17;101131.09;4847918;29;44905;-85
2023/06/28 09:57:42;;;;;;;;;13.33;11.33;;;;;27.25;43.45;101116.50;4853600;29;45055;-86
2023/06/28 10:03:27;;;;;;;;;14.33;13.00;;;;;26.88;43.59;101090.97;4771601;29;45574;-86
2023/06/28 10:05:59;;;;;;;;;11.67;11.67;;;;;27.03;42.95;101100.25;4772982;29;45040;-87
2023/06/28 10:08:30;;;;;;;;;11.33;11.33;;;;;27.00;42.67;101078.56;4771673;29;45861;-87
2023/06/28 10:11:57;;;;;;;;;16.33;14.33;;;;;27.28;43.00;101105.41;4793228;29;45495;-86
2023/06/28 10:26:37;;;;;;;;;10.67;8.67;;;;;27.73;41.62;101093.13;4803531;29;45416;-86
2023/06/28 10:29:10;;;;;;;;;16.33;16.33;;;;;27.60;41.53;101075.56;4801357;29;45548;-87
2023/06/28 10:32:07;;;;;;;;;18.33;17.33;;;;;27.61;41.25;101073.72;4789132;29;45353;-87
2023/06/28 10:38:43;;;;;;;;;27.00;23.67;;;;;27.63;41.82;101083.63;4734299;30;45172;-87
2023/06/28 10:44:40;;;;;;;;;;;;;;;;;;;;;
2023/06/28 10:48:00;;;;;;;;;18.33;17.00;;;;;28.18;41.66;101096.25;4823105;29;72138;-88
2023/06/28 10:57:20;;;;;;;;;16.33;15.33;;;;;28.60;40.69;101091.25;5248841;23;46207;-85
2023/06/28 11:00:39;;;;;;;;;19.00;17.67;;;;;28.72;40.22;101087.81;4793208;29;44791;-86
2023/06/28 11:10:00;;;;;;;;;17.33;16.67;;;;;28.79;40.68;101070.09;5405392;23;46550;-84
2023/06/28 11:12:51;;;;;;;;;15.33;15.33;;;;;28.74;40.60;101066.72;4876204;29;45608;-82
2023/06/28 11:16:01;;;;;;;;;20.00;20.00;;;;;28.91;40.33;101072.13;4867059;29;45479;-85
2023/06/28 11:25:57;;;;;;;;;19.67;19.33;;;;;28.95;39.89;101028.16;4746113;30;45595;-83
2023/06/28 11:28:48;;;;;;;;;15.67;15.67;;;;;29.02;39.94;101054.19;4735683;30;44949;-84
2023/06/28 11:38:27;;;;;;;;;18.00;16.67;;;;;28.91;40.29;101058.44;4743855;30;45462;-84
2023/06/28 11:41:34;;;;;;;;;18.00;15.33;;;;;28.76;40.10;101026.47;4746114;29;45550;-85
2023/06/28 11:44:43;;;;;;;;;22.00;18.67;;;;;28.90;40.19;101047.56;4727212;29;45352;-86
2023/06/28 11:47:59;;;;;;;;;17.00;16.67;;;;;28.74;39.84;101025.66;4719450;30;45630;-83
2023/06/28 11:50:33;;;;;;;;;20.33;19.67;;;;;28.61;39.97;101057.47;4726034;30;44879;-84
2023/06/28 11:53:11;;;;;;;;;19.33;19.33;;;;;28.52;40.40;101017.78;4748075;30;44874;-83
2023/06/28 11:55:43;;;;;;;;;20.00;20.00;;;;;28.78;40.19;101026.38;4752404;30;45427;-83
2023/06/28 11:58:19;;;;;;;;;;;;;;;;;;;;;
2023/06/28 12:00:45;;;;;;;;;18.33;17.00;;;;;28.86;40.18;101019.47;4876953;29;71812;-84
2023/06/28 12:03:10;;;;;;;;;17.00;16.67;;;;;28.87;40.11;101028.59;4862443;29;44817;-84
2023/06/28 12:06:06;;;;;;;;;19.00;16.67;;;;;29.07;39.96;101046.59;4871140;29;44939;-85
2023/06/28 12:09:41;;;;;;;;;15.67;15.00;;;;;28.98;39.50;101006.94;4861100;29;46811;-84
2023/06/28 12:12:33;;;;;;;;;23.33;21.67;;;;;29.20;39.25;101001.09;4841364;29;45588;-85
2023/06/28 12:18:20;;;;;;;;;16.67;16.67;;;;;29.43;39.80;101032.59;4810496;29;44924;-86
2023/06/28 12:23:43;;;;;;;;;15.67;15.00;;;;;29.53;40.10;101024.69;4598496;27;45142;-83
2023/06/28 12:26:36;;;;;;;;;15.33;15.33;;;;;29.82;40.01;101022.94;4853677;29;44991;-83
2023/06/28 12:29:06;;;;;;;;;18.00;15.00;;;;;29.83;39.56;100991.78;4871895;29;45324;-84
2023/06/28 12:31:50;;;;;;;;;18.33;15.33;;;;;30.17;38.70;101011.59;4863622;29;45747;-84
2023/06/28 12:38:18;;;;;;;;;15.67;15.33;;;;;30.21;38.69;101015.91;4804085;29;44888;-84
2023/06/28 12:40:56;;;;;;;;;16.67;15.00;;;;;30.16;38.16;100987.00;4800848;29;45444;-85
2023/06/28 12:43:25;;;;;;;;;17.67;13.00;;;;;30.34;38.11;101010.56;4787116;29;45497;-85
2023/06/28 12:46:15;;;;;;;;;15.33;15.00;;;;;30.38;37.68;101020.34;4815126;29;45475;-84
2023/06/28 12:49:02;;;;;;;;;16.33;16.33;;;;;30.24;38.15;100996.50;4801978;29;45360;-83
2023/06/28 12:51:37;;;;;;;;;16.67;16.33;;;;;30.34;38.36;101013.31;4817016;29;45436;-85
2023/06/28 12:54:08;;;;;;;;;21.00;18.00;;;;;30.58;37.88;101004.44;4815899;29;46710;-85
2023/06/28 12:56:46;;;;;;;;;18.33;17.67;;;;;30.83;38.12;101010.06;4818804;29;45531;-84
2023/06/28 12:59:14;;;;;;;;;15.67;15.00;;;;;30.88;37.92;100979.56;4803689;29;45404;-85
2023/06/28 13:01:40;;;;;;;;;15.67;14.00;;;;;31.13;37.74;100995.28;4818696;29;45008;-84
2023/06/28 13:04:25;;;;;;;;;18.33;17.33;;;;;31.07;36.84;100969.09;4815242;29;44941;-84
2023/06/28 13:06:54;;;;;;;;;14.00;14.00;;;;;31.29;36.59;101006.09;4797057;29;45514;-85
2023/06/28 13:09:22;;;;;;;;;13.33;11.00;;;;;31.23;36.56;100995.53;4858507;29;45566;-86
2023/06/28 13:11:51;;;;;;;;;14.67;14.67;;;;;31.11;36.43;101002.75;4872777;29;44826;-86
2023/06/28 13:14:20;;;;;;;;;14.00;14.00;;;;;30.96;36.39;100990.03;4862260;29;45462;-85
2023/06/28 13:16:47;;;;;;;;;14.67;13.00;;;;;30.73;36.73;100975.97;4863349;29;45868;-85
2023/06/28 13:19:19;;;;;;;;;18.50;17.50;;;;;30.78;36.57;100993.00;4867093;29;45372;-82
2023/06/28 13:22:37;;;;;;;;;15.00;15.00;;;;;30.73;36.19;100954.00;4877831;29;45816;-83
2023/06/28 13:25:10;;;;;;;;;13.67;13.67;;;;;30.95;36.94;100991.03;4866196;29;46923;-84
2023/06/28 13:27:38;;;;;;;;;18.33;16.67;;;;;31.00;36.91;100988.84;4854969;29;45530;-84
2023/06/28 13:30:07;;;;;;;;;15.67;14.33;;;;;31.27;37.03;100983.34;4857793;29;44798;-84
2023/06/28 13:32:33;;;;;;;;;16.00;14.00;;;;;31.51;36.43;100986.28;4839826;29;44976;-82
2023/06/28 13:35:54;;;;;;;;;17.67;17.33;;;;;31.77;35.92;100978.03;4861431;29;46198;-83
2023/06/28 13:42:18;;;;;;;;;18.00;17.00;;;;;31.70;35.53;100978.47;4833038;29;45779;-83
2023/06/28 13:44:43;;;;;;;;;17.00;17.00;;;;;31.63;35.61;100976.28;4847164;29;45388;-85
2023/06/28 13:47:12;;;;;;;;;20.33;16.00;;;;;32.16;35.45;100987.19;4862066;29;46038;-84
2023/06/28 13:49:39;;;;;;;;;15.00;15.00;;;;;32.57;34.91;100969.53;4861309;29;44809;-83
2023/06/28 13:55:32;;;;;;;;;18.67;17.67;;;;;32.69;34.29;100971.34;4860500;29;45393;-83
2023/06/28 13:58:00;;;;;;;;;14.00;11.33;;;;;32.26;34.59;100958.03;4861018;29;46709;-83
2023/06/28 14:00:26;;;;;;;;;16.00;15.33;;;;;31.96;35.23;100978.50;4858190;29;44791;-83
2023/06/28 14:02:59;;;;;;;;;16.00;16.00;;;;;31.75;35.30;100969.03;4853109;29;45547;-84
2023/06/28 14:05:28;;;;;;;;;16.33;16.33;;;;;31.85;35.11;100970.13;4854420;29;45487;-84
2023/06/28 14:08:35;;;;;;;;;21.33;19.67;;;;;32.02;35.76;100967.06;4854834;29;47784;-82
2023/06/28 14:11:01;;;;;;;;;18.33;16.00;;;;;32.41;35.24;100945.84;4844884;29;45483;-82
2023/06/28 14:13:29;;;;;;;;;21.33;18.67;;;;;32.85;34.37;100951.78;4864530;29;44859;-83
2023/06/28 14:15:54;;;;;;;;;19.67;17.67;;;;;32.70;33.97;100931.78;4864730;29;45942;-83
2023/06/28 14:18:23;;;;;;;;;17.00;17.00;;;;;32.84;34.36;100952.78;4845633;29;45524;-83
2023/06/28 14:20:49;;;;;;;;;22.67;20.00;;;;;32.61;34.79;100949.03;4849055;29;45705;-84
2023/06/28 14:27:05;;;;;;;;;15.33;15.33;;;;;32.46;34.18;100949.16;4846186;29;45547;-83
2023/06/28 14:29:40;;;;;;;;;20.33;18.67;;;;;32.22;34.71;100945.47;4847238;29;47312;-81
2023/06/28 14:32:08;;;;;;;;;15.00;14.00;;;;;32.07;35.19;100922.72;4869207;29;45401;-81
2023/06/28 14:40:54;;;;;;;;;17.67;17.00;;;;;33.00;34.16;100938.69;4826426;29;45875;-82
2023/06/28 14:43:21;;;;;;;;;17.67;17.67;;;;;32.91;34.46;100931.16;4828610;29;45577;-84
2023/06/28 14:45:46;;;;;;;;;18.00;16.00;;;;;32.62;34.37;100912.22;4828971;29;45595;-81
2023/06/28 14:48:12;;;;;;;;;19.67;18.33;;;;;32.62;34.31;100934.25;4821302;29;46049;-84
2023/06/28 14:50:37;;;;;;;;;19.00;19.00;;;;;32.44;34.52;100919.97;4819036;29;45513;-84
2023/06/28 14:53:03;;;;;;;;;16.00;15.00;;;;;32.30;35.05;100899.00;4826806;29;44855;-86
2023/06/28 14:55:30;;;;;;;;;16.33;15.33;;;;;32.29;35.33;100908.25;4817335;29;45549;-81
2023/06/28 14:57:56;;;;;;;;;22.67;21.33;;;;;32.22;34.63;100926.22;4836713;29;45028;-83
2023/06/28 15:00:27;;;;;;;;;15.00;14.33;;;;;32.16;34.17;100922.03;4817503;29;45889;-83
2023/06/28 15:02:53;;;;;;;;;23.00;20.00;;;;;31.72;34.91;100897.75;4835874;29;45488;-84
2023/06/28 15:05:31;;;;;;;;;19.33;15.67;;;;;31.78;34.95;100928.44;4822218;29;45524;-84
2023/06/28 15:07:59;;;;;;;;;14.67;13.67;;;;;31.42;35.16;100887.94;4822111;29;45454;-84
2023/06/28 15:10:25;;;;;;;;;20.67;19.67;;;;;31.63;35.23;100919.44;4809063;29;46023;-84
2023/06/28 15:13:17;;;;;;;;;22.67;20.00;;;;;31.50;35.01;100896.53;4827346;29;44793;-85
2023/06/28 15:15:57;;;;;;;;;;;;;;;;;;;;;
2023/06/28 15:18:43;;;;;;;;;16.00;16.00;;;;;31.28;35.61;100917.25;4864621;29;65440;-83
2023/06/28 15:21:30;;;;;;;;;13.00;13.00;;;;;31.25;35.50;100916.63;4882377;29;46255;-85
2023/06/28 15:23:56;;;;;;;;;18.00;17.00;;;;;31.08;35.65;100912.28;4862666;29;45397;-84
2023/06/28 15:26:27;;;;;;;;;16.67;16.67;;;;;31.04;35.83;100911.59;4871179;29;44867;-84
2023/06/28 15:28:53;;;;;;;;;18.67;16.33;;;;;30.82;36.18;100914.91;4855692;29;45499;-84
2023/06/28 15:31:22;;;;;;;;;19.00;15.67;;;;;30.70;35.71;100904.78;4856775;29;46106;-84
2023/06/28 15:34:04;;;;;;;;;12.33;12.33;;;;;30.83;35.95;100904.84;4872920;29;45689;-84
2023/06/28 15:36:29;;;;;;;;;19.00;18.00;;;;;30.77;35.72;100903.38;4873742;29;44831;-84
2023/06/28 15:39:00;;;;;;;;;19.00;19.00;;;;;30.86;36.04;100888.13;4869139;29;45050;-83